sensor_id;sensor_type;location;lat;lon;timestamp;P1;durP1;ratioP1;P2;durP2;ratioP2
75687;SDS011;64300;45.034;38.910;2023-04-08T00:00:01;27.58;;;12.02;;
75687;SDS011;64300;45.034;38.910;2023-04-08T00:02:26;24.92;;;10.02;;
75687;SDS011;64300;45.034;38.910;2023-04-08T00:04:52;22.65;;;10.52;;
75687;SDS011;64300;45.034;38.910;2023-04-08T00:07:18;21.73;;;10.77;;
75687;SDS011;64300;45.034;38.910;2023-04-08T00:09:43;19.27;;;9.55;;
75687;SDS011;64300;45.034;38.910;2023-04-08T00:12:09;23.88;;;10.23;;
75687;SDS011;64300;45.034;38.910;2023-04-08T00:14:35;20.90;;;8.88;;
75687;SDS011;64300;45.034;38.910;2023-04-08T00:17:02;19.30;;;9.10;;
75687;SDS011;64300;45.034;38.910;2023-04-08T00:19:28;18.85;;;8.80;;
75687;SDS011;64300;45.034;38.910;2023-04-08T00:21:56;19.27;;;9.00;;
75687;SDS011;64300;45.034;38.910;2023-04-08T00:24:22;19.77;;;8.65;;
75687;SDS011;64300;45.034;38.910;2023-04-08T00:26:48;24.02;;;10.10;;
75687;SDS011;64300;45.034;38.910;2023-04-08T00:29:13;17.35;;;8.25;;
75687;SDS011;64300;45.034;38.910;2023-04-08T00:35:07;14.50;;;7.25;;
75687;SDS011;64300;45.034;38.910;2023-04-08T00:37:33;16.85;;;7.95;;
75687;SDS011;64300;45.034;38.910;2023-04-08T00:39:59;18.30;;;8.15;;
75687;SDS011;64300;45.034;38.910;2023-04-08T00:42:25;24.05;;;8.23;;
75687;SDS011;64300;45.034;38.910;2023-04-08T00:44:51;17.38;;;8.15;;
75687;SDS011;64300;45.034;38.910;2023-04-08T00:47:17;17.52;;;7.20;;
75687;SDS011;64300;45.034;38.910;2023-04-08T00:49:43;16.58;;;6.95;;
75687;SDS011;64300;45.034;38.910;2023-04-08T00:52:09;18.90;;;8.15;;
75687;SDS011;64300;45.034;38.910;2023-04-08T00:54:35;17.65;;;7.65;;
75687;SDS011;64300;45.034;38.910;2023-04-08T00:57:01;19.92;;;7.97;;
75687;SDS011;64300;45.034;38.910;2023-04-08T00:59:28;22.05;;;8.50;;
75687;SDS011;64300;45.034;38.910;2023-04-08T01:02:04;17.52;;;7.57;;
75687;SDS011;64300;45.034;38.910;2023-04-08T01:04:52;20.42;;;7.57;;
75687;SDS011;64300;45.034;38.910;2023-04-08T01:07:24;17.83;;;6.18;;
75687;SDS011;64300;45.034;38.910;2023-04-08T01:09:52;14.07;;;5.95;;
75687;SDS011;64300;45.034;38.910;2023-04-08T01:12:21;18.85;;;6.97;;
75687;SDS011;64300;45.034;38.910;2023-04-08T01:14:51;23.10;;;9.20;;
75687;SDS011;64300;45.034;38.910;2023-04-08T01:17:20;21.95;;;7.80;;
75687;SDS011;64300;45.034;38.910;2023-04-08T01:19:46;15.55;;;7.72;;
75687;SDS011;64300;45.034;38.910;2023-04-08T01:22:31;17.05;;;8.82;;
75687;SDS011;64300;45.034;38.910;2023-04-08T01:25:07;14.95;;;6.60;;
75687;SDS011;64300;45.034;38.910;2023-04-08T01:27:33;11.02;;;4.50;;
75687;SDS011;64300;45.034;38.910;2023-04-08T01:30:00;6.25;;;3.05;;
75687;SDS011;64300;45.034;38.910;2023-04-08T01:32:29;9.23;;;4.40;;
75687;SDS011;64300;45.034;38.910;2023-04-08T01:34:56;10.88;;;4.20;;
75687;SDS011;64300;45.034;38.910;2023-04-08T01:37:22;13.00;;;5.40;;
75687;SDS011;64300;45.034;38.910;2023-04-08T01:39:52;8.52;;;4.15;;
75687;SDS011;64300;45.034;38.910;2023-04-08T01:42:19;8.07;;;4.57;;
75687;SDS011;64300;45.034;38.910;2023-04-08T01:44:49;10.65;;;4.97;;
75687;SDS011;64300;45.034;38.910;2023-04-08T01:47:17;13.25;;;5.65;;
75687;SDS011;64300;45.034;38.910;2023-04-08T01:49:43;12.60;;;4.88;;
75687;SDS011;64300;45.034;38.910;2023-04-08T01:52:09;9.13;;;5.18;;
75687;SDS011;64300;45.034;38.910;2023-04-08T01:54:36;14.68;;;4.35;;
75687;SDS011;64300;45.034;38.910;2023-04-08T01:57:03;16.65;;;6.82;;
75687;SDS011;64300;45.034;38.910;2023-04-08T01:59:31;13.07;;;5.13;;
75687;SDS011;64300;45.034;38.910;2023-04-08T02:01:59;14.75;;;6.40;;
75687;SDS011;64300;45.034;38.910;2023-04-08T02:04:27;17.95;;;6.95;;
75687;SDS011;64300;45.034;38.910;2023-04-08T02:06:52;15.57;;;7.28;;
75687;SDS011;64300;45.034;38.910;2023-04-08T02:09:18;16.45;;;7.25;;
75687;SDS011;64300;45.034;38.910;2023-04-08T02:11:43;20.52;;;7.43;;
75687;SDS011;64300;45.034;38.910;2023-04-08T02:14:11;16.88;;;6.45;;
75687;SDS011;64300;45.034;38.910;2023-04-08T02:16:51;18.92;;;7.53;;
75687;SDS011;64300;45.034;38.910;2023-04-08T02:19:19;16.90;;;6.80;;
75687;SDS011;64300;45.034;38.910;2023-04-08T02:21:48;18.48;;;7.50;;
75687;SDS011;64300;45.034;38.910;2023-04-08T02:24:15;20.50;;;8.98;;
75687;SDS011;64300;45.034;38.910;2023-04-08T02:26:42;28.58;;;9.13;;
75687;SDS011;64300;45.034;38.910;2023-04-08T02:29:10;25.58;;;8.82;;
75687;SDS011;64300;45.034;38.910;2023-04-08T02:31:36;27.67;;;9.20;;
75687;SDS011;64300;45.034;38.910;2023-04-08T02:34:03;25.38;;;8.18;;
75687;SDS011;64300;45.034;38.910;2023-04-08T02:36:31;24.85;;;9.20;;
75687;SDS011;64300;45.034;38.910;2023-04-08T02:39:00;25.25;;;9.40;;
75687;SDS011;64300;45.034;38.910;2023-04-08T02:41:29;30.55;;;9.18;;
75687;SDS011;64300;45.034;38.910;2023-04-08T02:43:55;26.40;;;9.10;;
75687;SDS011;64300;45.034;38.910;2023-04-08T02:46:21;27.95;;;9.38;;
75687;SDS011;64300;45.034;38.910;2023-04-08T02:48:47;23.83;;;8.52;;
75687;SDS011;64300;45.034;38.910;2023-04-08T02:51:13;26.55;;;9.40;;
75687;SDS011;64300;45.034;38.910;2023-04-08T02:53:39;28.33;;;9.57;;
75687;SDS011;64300;45.034;38.910;2023-04-08T02:56:05;38.40;;;9.73;;
75687;SDS011;64300;45.034;38.910;2023-04-08T02:58:31;41.38;;;10.57;;
75687;SDS011;64300;45.034;38.910;2023-04-08T03:00:58;41.55;;;10.70;;
75687;SDS011;64300;45.034;38.910;2023-04-08T03:03:23;45.47;;;10.38;;
75687;SDS011;64300;45.034;38.910;2023-04-08T03:05:56;31.30;;;10.20;;
75687;SDS011;64300;45.034;38.910;2023-04-08T03:08:22;30.15;;;9.43;;
75687;SDS011;64300;45.034;38.910;2023-04-08T03:10:48;32.13;;;9.30;;
75687;SDS011;64300;45.034;38.910;2023-04-08T03:13:14;73.55;;;11.30;;
75687;SDS011;64300;45.034;38.910;2023-04-08T03:15:39;31.80;;;7.78;;
75687;SDS011;64300;45.034;38.910;2023-04-08T03:18:05;34.88;;;9.60;;
75687;SDS011;64300;45.034;38.910;2023-04-08T03:20:31;33.45;;;10.75;;
75687;SDS011;64300;45.034;38.910;2023-04-08T03:22:56;34.70;;;8.95;;
75687;SDS011;64300;45.034;38.910;2023-04-08T03:25:22;44.10;;;8.88;;
75687;SDS011;64300;45.034;38.910;2023-04-08T03:27:48;32.58;;;8.98;;
75687;SDS011;64300;45.034;38.910;2023-04-08T03:30:13;88.75;;;10.18;;
75687;SDS011;64300;45.034;38.910;2023-04-08T03:32:39;31.52;;;9.55;;
75687;SDS011;64300;45.034;38.910;2023-04-08T03:35:05;44.63;;;9.15;;
75687;SDS011;64300;45.034;38.910;2023-04-08T03:37:30;29.92;;;9.25;;
75687;SDS011;64300;45.034;38.910;2023-04-08T03:39:56;24.30;;;9.10;;
75687;SDS011;64300;45.034;38.910;2023-04-08T03:42:22;31.95;;;9.20;;
75687;SDS011;64300;45.034;38.910;2023-04-08T03:44:47;82.90;;;10.82;;
75687;SDS011;64300;45.034;38.910;2023-04-08T03:47:13;29.92;;;10.18;;
75687;SDS011;64300;45.034;38.910;2023-04-08T03:49:39;36.92;;;9.02;;
75687;SDS011;64300;45.034;38.910;2023-04-08T03:52:04;36.97;;;9.90;;
75687;SDS011;64300;45.034;38.910;2023-04-08T03:54:30;47.65;;;7.57;;
75687;SDS011;64300;45.034;38.910;2023-04-08T03:56:56;20.00;;;8.52;;
75687;SDS011;64300;45.034;38.910;2023-04-08T03:59:21;26.73;;;9.30;;
75687;SDS011;64300;45.034;38.910;2023-04-08T04:01:47;23.25;;;8.43;;
75687;SDS011;64300;45.034;38.910;2023-04-08T04:04:13;25.90;;;8.50;;
75687;SDS011;64300;45.034;38.910;2023-04-08T04:06:38;18.05;;;7.50;;
75687;SDS011;64300;45.034;38.910;2023-04-08T04:09:04;19.92;;;7.57;;
75687;SDS011;64300;45.034;38.910;2023-04-08T04:11:30;22.05;;;6.75;;
75687;SDS011;64300;45.034;38.910;2023-04-08T04:13:55;22.35;;;7.82;;
75687;SDS011;64300;45.034;38.910;2023-04-08T04:16:21;25.55;;;7.38;;
75687;SDS011;64300;45.034;38.910;2023-04-08T04:18:47;59.88;;;8.15;;
75687;SDS011;64300;45.034;38.910;2023-04-08T04:21:12;30.60;;;7.25;;
75687;SDS011;64300;45.034;38.910;2023-04-08T04:23:38;17.38;;;7.10;;
75687;SDS011;64300;45.034;38.910;2023-04-08T04:26:12;17.75;;;7.38;;
75687;SDS011;64300;45.034;38.910;2023-04-08T04:28:38;16.90;;;5.38;;
75687;SDS011;64300;45.034;38.910;2023-04-08T04:31:03;22.48;;;7.25;;
75687;SDS011;64300;45.034;38.910;2023-04-08T04:33:29;17.77;;;6.97;;
75687;SDS011;64300;45.034;38.910;2023-04-08T04:35:58;19.90;;;7.22;;
75687;SDS011;64300;45.034;38.910;2023-04-08T04:38:24;15.43;;;6.65;;
75687;SDS011;64300;45.034;38.910;2023-04-08T04:40:49;12.88;;;5.55;;
75687;SDS011;64300;45.034;38.910;2023-04-08T04:43:15;14.82;;;6.53;;
75687;SDS011;64300;45.034;38.910;2023-04-08T04:45:41;13.63;;;5.97;;
75687;SDS011;64300;45.034;38.910;2023-04-08T04:48:06;18.98;;;8.57;;
75687;SDS011;64300;45.034;38.910;2023-04-08T04:50:32;19.50;;;8.43;;
75687;SDS011;64300;45.034;38.910;2023-04-08T04:52:58;20.17;;;8.75;;
75687;SDS011;64300;45.034;38.910;2023-04-08T04:55:24;18.40;;;8.02;;
75687;SDS011;64300;45.034;38.910;2023-04-08T04:57:50;19.42;;;7.38;;
75687;SDS011;64300;45.034;38.910;2023-04-08T05:00:15;17.60;;;8.13;;
75687;SDS011;64300;45.034;38.910;2023-04-08T05:02:41;17.90;;;8.18;;
75687;SDS011;64300;45.034;38.910;2023-04-08T05:05:07;15.75;;;7.15;;
75687;SDS011;64300;45.034;38.910;2023-04-08T05:07:36;17.23;;;7.68;;
75687;SDS011;64300;45.034;38.910;2023-04-08T05:10:03;15.25;;;6.75;;
75687;SDS011;64300;45.034;38.910;2023-04-08T05:12:29;18.85;;;8.63;;
75687;SDS011;64300;45.034;38.910;2023-04-08T05:14:56;18.10;;;7.70;;
75687;SDS011;64300;45.034;38.910;2023-04-08T05:17:22;16.33;;;7.75;;
75687;SDS011;64300;45.034;38.910;2023-04-08T05:19:47;17.02;;;8.45;;
75687;SDS011;64300;45.034;38.910;2023-04-08T05:22:14;16.42;;;7.50;;
75687;SDS011;64300;45.034;38.910;2023-04-08T05:24:39;16.77;;;7.75;;
75687;SDS011;64300;45.034;38.910;2023-04-08T05:27:05;19.02;;;6.90;;
75687;SDS011;64300;45.034;38.910;2023-04-08T05:29:31;19.75;;;8.82;;
75687;SDS011;64300;45.034;38.910;2023-04-08T05:31:56;15.30;;;7.38;;
75687;SDS011;64300;45.034;38.910;2023-04-08T05:34:23;17.50;;;8.00;;
75687;SDS011;64300;45.034;38.910;2023-04-08T05:36:49;16.30;;;7.25;;
75687;SDS011;64300;45.034;38.910;2023-04-08T05:39:19;18.10;;;7.93;;
75687;SDS011;64300;45.034;38.910;2023-04-08T05:41:45;19.30;;;7.80;;
75687;SDS011;64300;45.034;38.910;2023-04-08T05:44:11;17.42;;;8.70;;
75687;SDS011;64300;45.034;38.910;2023-04-08T05:46:38;16.38;;;8.00;;
75687;SDS011;64300;45.034;38.910;2023-04-08T05:49:03;14.60;;;7.30;;
75687;SDS011;64300;45.034;38.910;2023-04-08T05:51:29;15.05;;;7.35;;
75687;SDS011;64300;45.034;38.910;2023-04-08T05:53:58;16.67;;;7.75;;
75687;SDS011;64300;45.034;38.910;2023-04-08T05:56:23;12.50;;;6.40;;
75687;SDS011;64300;45.034;38.910;2023-04-08T05:58:49;14.73;;;7.22;;
75687;SDS011;64300;45.034;38.910;2023-04-08T06:01:15;14.55;;;7.07;;
75687;SDS011;64300;45.034;38.910;2023-04-08T06:03:41;14.77;;;6.80;;
75687;SDS011;64300;45.034;38.910;2023-04-08T06:06:09;13.75;;;6.78;;
75687;SDS011;64300;45.034;38.910;2023-04-08T06:08:36;13.77;;;6.68;;
75687;SDS011;64300;45.034;38.910;2023-04-08T06:11:02;13.55;;;6.78;;
75687;SDS011;64300;45.034;38.910;2023-04-08T06:13:29;14.15;;;6.47;;
75687;SDS011;64300;45.034;38.910;2023-04-08T06:16:08;13.60;;;6.35;;
75687;SDS011;64300;45.034;38.910;2023-04-08T06:18:34;11.32;;;6.00;;
75687;SDS011;64300;45.034;38.910;2023-04-08T06:20:59;13.07;;;6.50;;
75687;SDS011;64300;45.034;38.910;2023-04-08T06:23:25;13.40;;;6.13;;
75687;SDS011;64300;45.034;38.910;2023-04-08T06:25:52;13.40;;;6.25;;
75687;SDS011;64300;45.034;38.910;2023-04-08T06:28:17;13.35;;;7.35;;
75687;SDS011;64300;45.034;38.910;2023-04-08T06:30:43;12.95;;;6.97;;
75687;SDS011;64300;45.034;38.910;2023-04-08T06:33:09;14.55;;;7.35;;
75687;SDS011;64300;45.034;38.910;2023-04-08T06:35:36;13.05;;;6.95;;
75687;SDS011;64300;45.034;38.910;2023-04-08T06:38:02;14.52;;;7.13;;
75687;SDS011;64300;45.034;38.910;2023-04-08T06:40:28;12.68;;;6.65;;
75687;SDS011;64300;45.034;38.910;2023-04-08T06:42:56;11.55;;;6.80;;
75687;SDS011;64300;45.034;38.910;2023-04-08T06:45:33;13.07;;;8.02;;
75687;SDS011;64300;45.034;38.910;2023-04-08T06:47:59;13.43;;;6.97;;
75687;SDS011;64300;45.034;38.910;2023-04-08T06:50:25;13.68;;;7.55;;
75687;SDS011;64300;45.034;38.910;2023-04-08T06:52:51;14.38;;;8.07;;
75687;SDS011;64300;45.034;38.910;2023-04-08T06:55:17;11.90;;;6.97;;
75687;SDS011;64300;45.034;38.910;2023-04-08T06:57:43;11.98;;;7.30;;
75687;SDS011;64300;45.034;38.910;2023-04-08T07:00:08;11.55;;;6.32;;
75687;SDS011;64300;45.034;38.910;2023-04-08T07:02:35;10.27;;;6.15;;
75687;SDS011;64300;45.034;38.910;2023-04-08T07:05:00;11.63;;;6.18;;
75687;SDS011;64300;45.034;38.910;2023-04-08T07:07:27;12.73;;;6.53;;
75687;SDS011;64300;45.034;38.910;2023-04-08T07:09:52;13.43;;;6.72;;
75687;SDS011;64300;45.034;38.910;2023-04-08T07:12:18;12.95;;;7.13;;
75687;SDS011;64300;45.034;38.910;2023-04-08T07:14:44;13.82;;;7.45;;
75687;SDS011;64300;45.034;38.910;2023-04-08T07:17:10;13.50;;;6.68;;
75687;SDS011;64300;45.034;38.910;2023-04-08T07:19:36;12.90;;;7.07;;
75687;SDS011;64300;45.034;38.910;2023-04-08T07:22:01;13.63;;;7.05;;
75687;SDS011;64300;45.034;38.910;2023-04-08T07:24:27;12.57;;;6.85;;
75687;SDS011;64300;45.034;38.910;2023-04-08T07:26:57;12.30;;;6.93;;
75687;SDS011;64300;45.034;38.910;2023-04-08T07:29:22;12.45;;;6.95;;
75687;SDS011;64300;45.034;38.910;2023-04-08T07:31:48;11.88;;;6.20;;
75687;SDS011;64300;45.034;38.910;2023-04-08T07:34:13;11.25;;;6.78;;
75687;SDS011;64300;45.034;38.910;2023-04-08T07:36:39;12.02;;;6.93;;
75687;SDS011;64300;45.034;38.910;2023-04-08T07:39:08;10.27;;;6.60;;
75687;SDS011;64300;45.034;38.910;2023-04-08T07:41:33;12.35;;;7.30;;
75687;SDS011;64300;45.034;38.910;2023-04-08T07:43:59;11.48;;;7.05;;
75687;SDS011;64300;45.034;38.910;2023-04-08T07:46:24;13.40;;;6.70;;
75687;SDS011;64300;45.034;38.910;2023-04-08T07:48:50;15.20;;;7.00;;
75687;SDS011;64300;45.034;38.910;2023-04-08T07:51:16;10.65;;;6.43;;
75687;SDS011;64300;45.034;38.910;2023-04-08T07:53:44;12.30;;;6.93;;
75687;SDS011;64300;45.034;38.910;2023-04-08T07:56:11;12.32;;;6.60;;
75687;SDS011;64300;45.034;38.910;2023-04-08T07:58:37;9.63;;;6.20;;
75687;SDS011;64300;45.034;38.910;2023-04-08T08:01:02;13.73;;;6.78;;
75687;SDS011;64300;45.034;38.910;2023-04-08T08:03:28;13.73;;;6.75;;
75687;SDS011;64300;45.034;38.910;2023-04-08T08:05:54;13.07;;;7.13;;
75687;SDS011;64300;45.034;38.910;2023-04-08T08:08:19;13.90;;;7.68;;
75687;SDS011;64300;45.034;38.910;2023-04-08T08:10:45;13.38;;;7.25;;
75687;SDS011;64300;45.034;38.910;2023-04-08T08:13:11;10.27;;;6.95;;
75687;SDS011;64300;45.034;38.910;2023-04-08T08:15:41;13.25;;;6.78;;
75687;SDS011;64300;45.034;38.910;2023-04-08T08:18:06;12.75;;;7.53;;
75687;SDS011;64300;45.034;38.910;2023-04-08T08:20:34;14.15;;;7.53;;
75687;SDS011;64300;45.034;38.910;2023-04-08T08:23:00;12.20;;;6.97;;
75687;SDS011;64300;45.034;38.910;2023-04-08T08:25:25;14.52;;;7.93;;
75687;SDS011;64300;45.034;38.910;2023-04-08T08:27:51;13.77;;;7.60;;
75687;SDS011;64300;45.034;38.910;2023-04-08T08:30:17;17.90;;;8.23;;
75687;SDS011;64300;45.034;38.910;2023-04-08T08:32:48;14.20;;;7.78;;
75687;SDS011;64300;45.034;38.910;2023-04-08T08:35:15;12.38;;;7.53;;
75687;SDS011;64300;45.034;38.910;2023-04-08T08:37:41;17.27;;;8.00;;
75687;SDS011;64300;45.034;38.910;2023-04-08T08:40:07;18.45;;;8.90;;
75687;SDS011;64300;45.034;38.910;2023-04-08T08:42:33;14.27;;;8.25;;
75687;SDS011;64300;45.034;38.910;2023-04-08T08:45:00;14.43;;;7.88;;
75687;SDS011;64300;45.034;38.910;2023-04-08T08:47:26;14.82;;;7.95;;
75687;SDS011;64300;45.034;38.910;2023-04-08T08:49:51;11.98;;;7.28;;
75687;SDS011;64300;45.034;38.910;2023-04-08T08:52:17;15.48;;;7.68;;
75687;SDS011;64300;45.034;38.910;2023-04-08T08:54:43;11.32;;;6.75;;
75687;SDS011;64300;45.034;38.910;2023-04-08T08:57:18;11.02;;;6.90;;
75687;SDS011;64300;45.034;38.910;2023-04-08T08:59:45;13.25;;;6.95;;
75687;SDS011;64300;45.034;38.910;2023-04-08T09:02:30;13.35;;;7.65;;
75687;SDS011;64300;45.034;38.910;2023-04-08T09:04:59;15.32;;;7.53;;
75687;SDS011;64300;45.034;38.910;2023-04-08T09:07:26;13.48;;;8.20;;
75687;SDS011;64300;45.034;38.910;2023-04-08T09:09:52;13.35;;;7.80;;
75687;SDS011;64300;45.034;38.910;2023-04-08T09:12:18;14.77;;;7.57;;
75687;SDS011;64300;45.034;38.910;2023-04-08T09:14:43;16.23;;;9.15;;
75687;SDS011;64300;45.034;38.910;2023-04-08T09:17:09;15.40;;;8.18;;
75687;SDS011;64300;45.034;38.910;2023-04-08T09:19:35;16.25;;;7.82;;
75687;SDS011;64300;45.034;38.910;2023-04-08T09:24:30;12.35;;;7.38;;
75687;SDS011;64300;45.034;38.910;2023-04-08T09:26:56;16.63;;;8.27;;
75687;SDS011;64300;45.034;38.910;2023-04-08T09:29:24;15.98;;;8.43;;
75687;SDS011;64300;45.034;38.910;2023-04-08T09:31:56;17.10;;;8.73;;
75687;SDS011;64300;45.034;38.910;2023-04-08T09:34:22;16.77;;;8.35;;
75687;SDS011;64300;45.034;38.910;2023-04-08T09:36:49;15.63;;;8.48;;
75687;SDS011;64300;45.034;38.910;2023-04-08T09:39:14;15.90;;;8.98;;
75687;SDS011;64300;45.034;38.910;2023-04-08T09:41:43;17.33;;;8.38;;
75687;SDS011;64300;45.034;38.910;2023-04-08T09:44:10;14.55;;;8.32;;
75687;SDS011;64300;45.034;38.910;2023-04-08T09:46:44;16.58;;;8.43;;
75687;SDS011;64300;45.034;38.910;2023-04-08T09:49:12;15.35;;;8.30;;
75687;SDS011;64300;45.034;38.910;2023-04-08T09:56:56;20.38;;;8.98;;
75687;SDS011;64300;45.034;38.910;2023-04-08T09:59:24;17.33;;;9.18;;
75687;SDS011;64300;45.034;38.910;2023-04-08T10:01:52;13.23;;;8.30;;
75687;SDS011;64300;45.034;38.910;2023-04-08T10:04:19;16.00;;;8.88;;
75687;SDS011;64300;45.034;38.910;2023-04-08T10:06:47;15.65;;;8.68;;
75687;SDS011;64300;45.034;38.910;2023-04-08T10:09:15;14.80;;;7.75;;
75687;SDS011;64300;45.034;38.910;2023-04-08T10:11:41;16.92;;;8.95;;
75687;SDS011;64300;45.034;38.910;2023-04-08T10:14:08;16.52;;;8.93;;
75687;SDS011;64300;45.034;38.910;2023-04-08T10:16:33;17.70;;;8.55;;
75687;SDS011;64300;45.034;38.910;2023-04-08T10:18:59;16.23;;;8.20;;
75687;SDS011;64300;45.034;38.910;2023-04-08T10:21:35;16.10;;;8.20;;
75687;SDS011;64300;45.034;38.910;2023-04-08T10:24:09;14.68;;;8.32;;
75687;SDS011;64300;45.034;38.910;2023-04-08T10:26:36;15.32;;;8.27;;
75687;SDS011;64300;45.034;38.910;2023-04-08T10:31:49;16.10;;;8.55;;
75687;SDS011;64300;45.034;38.910;2023-04-08T10:34:19;15.57;;;8.50;;
75687;SDS011;64300;45.034;38.910;2023-04-08T10:36:46;18.58;;;8.70;;
75687;SDS011;64300;45.034;38.910;2023-04-08T10:39:14;15.07;;;8.77;;
75687;SDS011;64300;45.034;38.910;2023-04-08T10:41:41;15.85;;;9.00;;
75687;SDS011;64300;45.034;38.910;2023-04-08T10:44:26;16.00;;;8.30;;
75687;SDS011;64300;45.034;38.910;2023-04-08T10:46:52;16.30;;;8.63;;
75687;SDS011;64300;45.034;38.910;2023-04-08T10:49:17;15.25;;;8.38;;
75687;SDS011;64300;45.034;38.910;2023-04-08T10:51:44;14.13;;;8.18;;
75687;SDS011;64300;45.034;38.910;2023-04-08T10:54:14;14.63;;;8.65;;
75687;SDS011;64300;45.034;38.910;2023-04-08T10:56:47;17.15;;;8.63;;
75687;SDS011;64300;45.034;38.910;2023-04-08T10:59:14;13.95;;;8.52;;
75687;SDS011;64300;45.034;38.910;2023-04-08T11:01:44;17.25;;;9.15;;
75687;SDS011;64300;45.034;38.910;2023-04-08T11:04:11;14.95;;;9.48;;
75687;SDS011;64300;45.034;38.910;2023-04-08T11:06:37;15.20;;;8.45;;
75687;SDS011;64300;45.034;38.910;2023-04-08T11:09:03;15.23;;;7.90;;
75687;SDS011;64300;45.034;38.910;2023-04-08T11:11:29;17.58;;;9.30;;
75687;SDS011;64300;45.034;38.910;2023-04-08T11:13:55;15.52;;;9.05;;
75687;SDS011;64300;45.034;38.910;2023-04-08T11:16:21;17.02;;;9.15;;
75687;SDS011;64300;45.034;38.910;2023-04-08T11:18:47;19.27;;;10.07;;
75687;SDS011;64300;45.034;38.910;2023-04-08T11:21:13;16.92;;;9.05;;
75687;SDS011;64300;45.034;38.910;2023-04-08T11:23:40;17.33;;;9.48;;
75687;SDS011;64300;45.034;38.910;2023-04-08T11:26:06;22.30;;;10.95;;
75687;SDS011;64300;45.034;38.910;2023-04-08T11:28:32;16.92;;;9.88;;
75687;SDS011;64300;45.034;38.910;2023-04-08T11:30:59;17.73;;;9.40;;
75687;SDS011;64300;45.034;38.910;2023-04-08T11:33:29;15.27;;;9.13;;
75687;SDS011;64300;45.034;38.910;2023-04-08T11:35:55;16.60;;;9.40;;
75687;SDS011;64300;45.034;38.910;2023-04-08T11:38:21;13.68;;;7.47;;
75687;SDS011;64300;45.034;38.910;2023-04-08T11:40:53;14.20;;;8.52;;
75687;SDS011;64300;45.034;38.910;2023-04-08T11:43:19;15.95;;;8.30;;
75687;SDS011;64300;45.034;38.910;2023-04-08T11:45:45;14.18;;;7.70;;
75687;SDS011;64300;45.034;38.910;2023-04-08T11:48:12;13.57;;;7.63;;
75687;SDS011;64300;45.034;38.910;2023-04-08T11:50:38;13.68;;;7.35;;
75687;SDS011;64300;45.034;38.910;2023-04-08T11:53:14;12.55;;;7.25;;
75687;SDS011;64300;45.034;38.910;2023-04-08T11:55:40;10.13;;;7.00;;
75687;SDS011;64300;45.034;38.910;2023-04-08T11:58:06;17.58;;;7.40;;
75687;SDS011;64300;45.034;38.910;2023-04-08T12:00:31;12.20;;;7.07;;
75687;SDS011;64300;45.034;38.910;2023-04-08T12:02:57;12.55;;;6.78;;
75687;SDS011;64300;45.034;38.910;2023-04-08T12:05:23;14.70;;;7.18;;
75687;SDS011;64300;45.034;38.910;2023-04-08T12:07:48;13.60;;;6.90;;
75687;SDS011;64300;45.034;38.910;2023-04-08T12:10:14;13.95;;;7.32;;
75687;SDS011;64300;45.034;38.910;2023-04-08T12:12:39;15.02;;;7.32;;
75687;SDS011;64300;45.034;38.910;2023-04-08T12:15:06;12.93;;;6.53;;
75687;SDS011;64300;45.034;38.910;2023-04-08T12:17:32;11.00;;;6.75;;
75687;SDS011;64300;45.034;38.910;2023-04-08T12:19:58;18.00;;;8.57;;
75687;SDS011;64300;45.034;38.910;2023-04-08T12:22:23;12.23;;;6.82;;
75687;SDS011;64300;45.034;38.910;2023-04-08T12:24:49;14.07;;;7.57;;
75687;SDS011;64300;45.034;38.910;2023-04-08T12:27:15;13.48;;;7.50;;
75687;SDS011;64300;45.034;38.910;2023-04-08T12:29:41;13.70;;;7.30;;
75687;SDS011;64300;45.034;38.910;2023-04-08T12:32:07;12.30;;;7.10;;
75687;SDS011;64300;45.034;38.910;2023-04-08T12:34:34;11.85;;;7.15;;
75687;SDS011;64300;45.034;38.910;2023-04-08T12:37:00;13.82;;;6.82;;
75687;SDS011;64300;45.034;38.910;2023-04-08T12:39:26;15.63;;;9.80;;
75687;SDS011;64300;45.034;38.910;2023-04-08T12:41:53;12.77;;;7.95;;
75687;SDS011;64300;45.034;38.910;2023-04-08T12:44:19;15.38;;;7.57;;
75687;SDS011;64300;45.034;38.910;2023-04-08T12:46:45;12.18;;;7.53;;
75687;SDS011;64300;45.034;38.910;2023-04-08T12:49:10;12.10;;;7.05;;
75687;SDS011;64300;45.034;38.910;2023-04-08T12:51:36;11.63;;;6.53;;
75687;SDS011;64300;45.034;38.910;2023-04-08T12:54:02;16.65;;;7.65;;
75687;SDS011;64300;45.034;38.910;2023-04-08T12:56:28;13.13;;;7.20;;
75687;SDS011;64300;45.034;38.910;2023-04-08T12:58:54;13.85;;;7.57;;
75687;SDS011;64300;45.034;38.910;2023-04-08T13:01:20;12.40;;;7.03;;
75687;SDS011;64300;45.034;38.910;2023-04-08T13:03:46;11.27;;;7.03;;
75687;SDS011;64300;45.034;38.910;2023-04-08T13:06:12;13.27;;;7.28;;
75687;SDS011;64300;45.034;38.910;2023-04-08T13:08:38;15.07;;;7.35;;
75687;SDS011;64300;45.034;38.910;2023-04-08T13:11:04;12.38;;;7.35;;
75687;SDS011;64300;45.034;38.910;2023-04-08T13:13:29;16.23;;;8.75;;
75687;SDS011;64300;45.034;38.910;2023-04-08T13:15:55;16.23;;;7.28;;
75687;SDS011;64300;45.034;38.910;2023-04-08T13:18:21;13.00;;;7.78;;
75687;SDS011;64300;45.034;38.910;2023-04-08T13:20:46;12.05;;;7.55;;
75687;SDS011;64300;45.034;38.910;2023-04-08T13:23:12;11.68;;;6.88;;
75687;SDS011;64300;45.034;38.910;2023-04-08T13:25:39;13.82;;;7.25;;
75687;SDS011;64300;45.034;38.910;2023-04-08T13:28:05;13.57;;;7.30;;
75687;SDS011;64300;45.034;38.910;2023-04-08T13:30:31;14.52;;;6.88;;
75687;SDS011;64300;45.034;38.910;2023-04-08T13:32:56;14.00;;;7.38;;
75687;SDS011;64300;45.034;38.910;2023-04-08T13:35:22;11.98;;;7.07;;
75687;SDS011;64300;45.034;38.910;2023-04-08T13:37:47;15.43;;;7.68;;
75687;SDS011;64300;45.034;38.910;2023-04-08T13:40:13;16.48;;;8.00;;
75687;SDS011;64300;45.034;38.910;2023-04-08T13:42:38;14.70;;;8.10;;
75687;SDS011;64300;45.034;38.910;2023-04-08T13:45:04;14.95;;;7.75;;
75687;SDS011;64300;45.034;38.910;2023-04-08T13:47:30;11.05;;;7.03;;
75687;SDS011;64300;45.034;38.910;2023-04-08T13:49:55;13.93;;;7.57;;
75687;SDS011;64300;45.034;38.910;2023-04-08T13:52:21;17.08;;;7.78;;
75687;SDS011;64300;45.034;38.910;2023-04-08T13:54:47;11.25;;;7.18;;
75687;SDS011;64300;45.034;38.910;2023-04-08T13:57:12;11.63;;;7.25;;
75687;SDS011;64300;45.034;38.910;2023-04-08T13:59:38;16.15;;;7.90;;
75687;SDS011;64300;45.034;38.910;2023-04-08T14:02:03;13.75;;;7.95;;
75687;SDS011;64300;45.034;38.910;2023-04-08T14:04:29;14.02;;;7.65;;
75687;SDS011;64300;45.034;38.910;2023-04-08T14:06:55;15.15;;;7.78;;
75687;SDS011;64300;45.034;38.910;2023-04-08T14:09:22;15.27;;;8.27;;
75687;SDS011;64300;45.034;38.910;2023-04-08T14:11:47;18.17;;;8.02;;
75687;SDS011;64300;45.034;38.910;2023-04-08T14:14:13;13.30;;;7.70;;
75687;SDS011;64300;45.034;38.910;2023-04-08T14:16:39;15.43;;;7.47;;
75687;SDS011;64300;45.034;38.910;2023-04-08T14:19:05;12.52;;;7.40;;
75687;SDS011;64300;45.034;38.910;2023-04-08T14:21:31;12.43;;;7.45;;
75687;SDS011;64300;45.034;38.910;2023-04-08T14:23:57;12.32;;;7.30;;
75687;SDS011;64300;45.034;38.910;2023-04-08T14:26:22;12.73;;;6.60;;
75687;SDS011;64300;45.034;38.910;2023-04-08T14:28:48;11.35;;;7.47;;
75687;SDS011;64300;45.034;38.910;2023-04-08T14:31:14;12.07;;;7.13;;